sensor_id;sensor_type;location;lat;lon;timestamp;P1;durP1;ratioP1;P2;durP2;ratioP2
70071;SDS011;57434;42.794;23.302;2023-02-10T00:00:06;72.13;;;22.17;;
70071;SDS011;57434;42.794;23.302;2023-02-10T00:01:10;64.93;;;23.08;;
70071;SDS011;57434;42.794;23.302;2023-02-10T00:02:19;75.40;;;27.45;;
70071;SDS011;57434;42.794;23.302;2023-02-10T00:03:21;59.88;;;26.00;;
70071;SDS011;57434;42.794;23.302;2023-02-10T00:04:23;63.60;;;24.40;;
70071;SDS011;57434;42.794;23.302;2023-02-10T00:05:25;82.67;;;26.33;;
70071;SDS011;57434;42.794;23.302;2023-02-10T00:06:26;68.32;;;23.27;;
70071;SDS011;57434;42.794;23.302;2023-02-10T00:07:28;75.35;;;25.35;;
70071;SDS011;57434;42.794;23.302;2023-02-10T00:08:30;55.67;;;23.23;;
70071;SDS011;57434;42.794;23.302;2023-02-10T00:09:32;57.22;;;22.60;;
70071;SDS011;57434;42.794;23.302;2023-02-10T00:10:34;62.85;;;23.30;;
70071;SDS011;57434;42.794;23.302;2023-02-10T00:11:36;63.10;;;25.33;;
70071;SDS011;57434;42.794;23.302;2023-02-10T00:12:37;68.15;;;25.02;;
70071;SDS011;57434;42.794;23.302;2023-02-10T00:13:39;58.40;;;22.80;;
70071;SDS011;57434;42.794;23.302;2023-02-10T00:14:41;74.10;;;26.00;;
70071;SDS011;57434;42.794;23.302;2023-02-10T00:15:43;74.80;;;26.83;;
70071;SDS011;57434;42.794;23.302;2023-02-10T00:16:45;67.10;;;24.05;;
70071;SDS011;57434;42.794;23.302;2023-02-10T00:17:49;48.88;;;21.05;;
70071;SDS011;57434;42.794;23.302;2023-02-10T00:18:51;54.25;;;21.48;;
70071;SDS011;57434;42.794;23.302;2023-02-10T00:19:53;63.65;;;21.85;;
70071;SDS011;57434;42.794;23.302;2023-02-10T00:20:54;53.28;;;20.90;;
70071;SDS011;57434;42.794;23.302;2023-02-10T00:21:57;48.40;;;20.60;;
70071;SDS011;57434;42.794;23.302;2023-02-10T00:22:59;47.35;;;20.73;;
70071;SDS011;57434;42.794;23.302;2023-02-10T00:24:01;57.72;;;20.50;;
70071;SDS011;57434;42.794;23.302;2023-02-10T00:25:03;73.85;;;26.08;;
70071;SDS011;57434;42.794;23.302;2023-02-10T00:26:05;62.00;;;26.83;;
70071;SDS011;57434;42.794;23.302;2023-02-10T00:27:08;63.22;;;23.45;;
70071;SDS011;57434;42.794;23.302;2023-02-10T00:28:10;69.75;;;25.45;;
70071;SDS011;57434;42.794;23.302;2023-02-10T00:29:12;71.82;;;25.33;;
70071;SDS011;57434;42.794;23.302;2023-02-10T00:30:14;59.78;;;24.50;;
70071;SDS011;57434;42.794;23.302;2023-02-10T00:31:16;81.60;;;27.45;;
70071;SDS011;57434;42.794;23.302;2023-02-10T00:32:18;75.47;;;28.60;;
70071;SDS011;57434;42.794;23.302;2023-02-10T00:33:20;79.00;;;26.00;;
70071;SDS011;57434;42.794;23.302;2023-02-10T00:34:22;98.97;;;31.20;;
70071;SDS011;57434;42.794;23.302;2023-02-10T00:35:24;73.32;;;25.00;;
70071;SDS011;57434;42.794;23.302;2023-02-10T00:36:26;65.27;;;21.70;;
70071;SDS011;57434;42.794;23.302;2023-02-10T00:37:27;64.47;;;20.30;;
70071;SDS011;57434;42.794;23.302;2023-02-10T00:38:29;49.60;;;20.00;;
70071;SDS011;57434;42.794;23.302;2023-02-10T00:39:31;74.53;;;27.30;;
70071;SDS011;57434;42.794;23.302;2023-02-10T00:40:33;69.53;;;23.58;;
70071;SDS011;57434;42.794;23.302;2023-02-10T00:41:34;58.17;;;21.92;;
70071;SDS011;57434;42.794;23.302;2023-02-10T00:42:36;56.80;;;21.75;;
70071;SDS011;57434;42.794;23.302;2023-02-10T00:43:38;58.50;;;19.20;;
70071;SDS011;57434;42.794;23.302;2023-02-10T00:44:40;49.28;;;21.52;;
70071;SDS011;57434;42.794;23.302;2023-02-10T00:45:42;59.45;;;20.67;;
70071;SDS011;57434;42.794;23.302;2023-02-10T00:46:44;52.27;;;21.03;;
70071;SDS011;57434;42.794;23.302;2023-02-10T00:47:46;48.78;;;18.70;;
70071;SDS011;57434;42.794;23.302;2023-02-10T00:48:48;58.22;;;20.33;;
70071;SDS011;57434;42.794;23.302;2023-02-10T00:49:51;51.47;;;21.08;;
70071;SDS011;57434;42.794;23.302;2023-02-10T00:50:53;60.42;;;21.02;;
70071;SDS011;57434;42.794;23.302;2023-02-10T00:51:55;52.78;;;20.95;;
70071;SDS011;57434;42.794;23.302;2023-02-10T00:52:57;62.53;;;22.52;;
70071;SDS011;57434;42.794;23.302;2023-02-10T00:53:59;68.93;;;25.33;;
70071;SDS011;57434;42.794;23.302;2023-02-10T00:55:01;62.22;;;23.20;;
70071;SDS011;57434;42.794;23.302;2023-02-10T00:56:02;53.78;;;19.58;;
70071;SDS011;57434;42.794;23.302;2023-02-10T00:57:05;55.43;;;22.10;;
70071;SDS011;57434;42.794;23.302;2023-02-10T00:58:06;65.35;;;22.60;;
70071;SDS011;57434;42.794;23.302;2023-02-10T00:59:08;54.70;;;21.75;;
70071;SDS011;57434;42.794;23.302;2023-02-10T01:00:13;55.60;;;21.73;;
70071;SDS011;57434;42.794;23.302;2023-02-10T01:01:15;51.25;;;19.90;;
70071;SDS011;57434;42.794;23.302;2023-02-10T01:02:17;53.05;;;19.65;;
70071;SDS011;57434;42.794;23.302;2023-02-10T01:03:18;50.13;;;19.63;;
70071;SDS011;57434;42.794;23.302;2023-02-10T01:04:20;36.28;;;17.60;;
70071;SDS011;57434;42.794;23.302;2023-02-10T01:05:22;40.60;;;18.38;;
70071;SDS011;57434;42.794;23.302;2023-02-10T01:06:24;47.15;;;19.08;;
70071;SDS011;57434;42.794;23.302;2023-02-10T01:07:26;51.30;;;19.03;;
70071;SDS011;57434;42.794;23.302;2023-02-10T01:08:27;39.33;;;17.05;;
70071;SDS011;57434;42.794;23.302;2023-02-10T01:09:30;47.25;;;19.02;;
70071;SDS011;57434;42.794;23.302;2023-02-10T01:10:35;43.92;;;18.25;;
70071;SDS011;57434;42.794;23.302;2023-02-10T01:11:37;50.97;;;19.05;;
70071;SDS011;57434;42.794;23.302;2023-02-10T01:12:39;37.75;;;16.38;;
70071;SDS011;57434;42.794;23.302;2023-02-10T01:13:41;39.38;;;16.45;;
70071;SDS011;57434;42.794;23.302;2023-02-10T01:14:43;42.58;;;17.83;;
70071;SDS011;57434;42.794;23.302;2023-02-10T01:15:45;40.63;;;16.30;;
70071;SDS011;57434;42.794;23.302;2023-02-10T01:16:48;42.80;;;17.13;;
70071;SDS011;57434;42.794;23.302;2023-02-10T01:17:50;37.40;;;19.67;;
70071;SDS011;57434;42.794;23.302;2023-02-10T01:18:53;46.33;;;18.52;;
70071;SDS011;57434;42.794;23.302;2023-02-10T01:19:55;39.03;;;17.67;;
70071;SDS011;57434;42.794;23.302;2023-02-10T01:20:56;33.45;;;16.17;;
70071;SDS011;57434;42.794;23.302;2023-02-10T01:21:58;43.58;;;16.15;;
70071;SDS011;57434;42.794;23.302;2023-02-10T01:23:00;40.85;;;17.80;;
70071;SDS011;57434;42.794;23.302;2023-02-10T01:24:02;39.92;;;17.02;;
70071;SDS011;57434;42.794;23.302;2023-02-10T01:25:04;42.28;;;15.80;;
70071;SDS011;57434;42.794;23.302;2023-02-10T01:26:07;38.40;;;16.60;;
70071;SDS011;57434;42.794;23.302;2023-02-10T01:27:09;37.05;;;17.42;;
70071;SDS011;57434;42.794;23.302;2023-02-10T01:28:11;45.33;;;18.77;;
70071;SDS011;57434;42.794;23.302;2023-02-10T01:29:13;42.25;;;17.92;;
70071;SDS011;57434;42.794;23.302;2023-02-10T01:30:15;42.78;;;18.10;;
70071;SDS011;57434;42.794;23.302;2023-02-10T01:31:18;38.95;;;18.88;;
70071;SDS011;57434;42.794;23.302;2023-02-10T01:32:21;41.50;;;17.02;;
70071;SDS011;57434;42.794;23.302;2023-02-10T01:33:23;46.50;;;17.00;;
70071;SDS011;57434;42.794;23.302;2023-02-10T01:34:25;44.10;;;18.75;;
70071;SDS011;57434;42.794;23.302;2023-02-10T01:35:27;46.53;;;20.85;;
70071;SDS011;57434;42.794;23.302;2023-02-10T01:36:29;47.47;;;18.98;;
70071;SDS011;57434;42.794;23.302;2023-02-10T01:37:31;55.47;;;19.70;;
70071;SDS011;57434;42.794;23.302;2023-02-10T01:38:35;40.83;;;16.93;;
70071;SDS011;57434;42.794;23.302;2023-02-10T01:39:37;45.58;;;19.13;;
70071;SDS011;57434;42.794;23.302;2023-02-10T01:40:39;41.20;;;16.80;;
70071;SDS011;57434;42.794;23.302;2023-02-10T01:41:41;39.95;;;16.15;;
70071;SDS011;57434;42.794;23.302;2023-02-10T01:42:42;41.67;;;17.15;;
70071;SDS011;57434;42.794;23.302;2023-02-10T01:43:54;40.13;;;15.95;;
70071;SDS011;57434;42.794;23.302;2023-02-10T01:45:24;37.92;;;14.88;;
70071;SDS011;57434;42.794;23.302;2023-02-10T01:46:35;43.17;;;16.05;;
70071;SDS011;57434;42.794;23.302;2023-02-10T01:47:36;32.78;;;13.57;;
70071;SDS011;57434;42.794;23.302;2023-02-10T01:48:38;42.53;;;16.92;;
70071;SDS011;57434;42.794;23.302;2023-02-10T01:49:47;43.40;;;15.73;;
70071;SDS011;57434;42.794;23.302;2023-02-10T01:50:52;35.22;;;14.50;;
70071;SDS011;57434;42.794;23.302;2023-02-10T01:52:06;40.97;;;14.98;;
70071;SDS011;57434;42.794;23.302;2023-02-10T01:53:13;31.77;;;14.10;;
70071;SDS011;57434;42.794;23.302;2023-02-10T01:54:17;36.22;;;14.07;;
70071;SDS011;57434;42.794;23.302;2023-02-10T01:55:28;33.70;;;12.90;;
70071;SDS011;57434;42.794;23.302;2023-02-10T01:56:34;39.17;;;15.38;;
70071;SDS011;57434;42.794;23.302;2023-02-10T01:57:35;29.42;;;13.35;;
70071;SDS011;57434;42.794;23.302;2023-02-10T01:58:40;34.53;;;14.30;;
70071;SDS011;57434;42.794;23.302;2023-02-10T01:59:43;31.45;;;12.30;;
70071;SDS011;57434;42.794;23.302;2023-02-10T02:00:46;35.20;;;15.03;;
70071;SDS011;57434;42.794;23.302;2023-02-10T02:01:48;34.83;;;14.38;;
70071;SDS011;57434;42.794;23.302;2023-02-10T02:02:51;35.03;;;12.32;;
70071;SDS011;57434;42.794;23.302;2023-02-10T02:03:54;29.63;;;12.10;;
70071;SDS011;57434;42.794;23.302;2023-02-10T02:04:59;38.17;;;14.40;;
70071;SDS011;57434;42.794;23.302;2023-02-10T02:06:02;36.42;;;12.98;;
70071;SDS011;57434;42.794;23.302;2023-02-10T02:07:03;27.70;;;11.98;;
70071;SDS011;57434;42.794;23.302;2023-02-10T02:08:07;38.75;;;15.30;;
70071;SDS011;57434;42.794;23.302;2023-02-10T02:09:10;35.10;;;12.40;;
70071;SDS011;57434;42.794;23.302;2023-02-10T02:10:12;34.10;;;13.25;;
70071;SDS011;57434;42.794;23.302;2023-02-10T02:17:33;29.90;;;11.32;;
70071;SDS011;57434;42.794;23.302;2023-02-10T02:18:47;27.30;;;11.95;;
70071;SDS011;57434;42.794;23.302;2023-02-10T02:28:33;28.17;;;11.98;;
70071;SDS011;57434;42.794;23.302;2023-02-10T02:29:48;28.85;;;11.60;;
70071;SDS011;57434;42.794;23.302;2023-02-10T02:32:24;30.10;;;13.40;;
70071;SDS011;57434;42.794;23.302;2023-02-10T02:34:59;31.70;;;12.20;;
70071;SDS011;57434;42.794;23.302;2023-02-10T02:36:11;28.02;;;13.07;;
70071;SDS011;57434;42.794;23.302;2023-02-10T02:37:22;34.87;;;14.03;;
70071;SDS011;57434;42.794;23.302;2023-02-10T02:38:27;33.33;;;14.77;;
70071;SDS011;57434;42.794;23.302;2023-02-10T02:39:29;30.75;;;13.05;;
70071;SDS011;57434;42.794;23.302;2023-02-10T02:40:33;37.35;;;13.60;;
70071;SDS011;57434;42.794;23.302;2023-02-10T02:41:35;41.10;;;13.30;;
70071;SDS011;57434;42.794;23.302;2023-02-10T02:42:37;37.10;;;15.85;;
70071;SDS011;57434;42.794;23.302;2023-02-10T02:43:38;40.17;;;15.32;;
70071;SDS011;57434;42.794;23.302;2023-02-10T02:44:42;36.40;;;14.30;;
70071;SDS011;57434;42.794;23.302;2023-02-10T02:46:07;29.83;;;12.70;;
70071;SDS011;57434;42.794;23.302;2023-02-10T02:47:19;33.33;;;13.60;;
70071;SDS011;57434;42.794;23.302;2023-02-10T02:50:23;29.63;;;12.00;;
70071;SDS011;57434;42.794;23.302;2023-02-10T02:52:10;32.97;;;13.68;;
70071;SDS011;57434;42.794;23.302;2023-02-10T02:57:20;25.98;;;12.75;;
70071;SDS011;57434;42.794;23.302;2023-02-10T02:58:33;30.65;;;13.13;;
70071;SDS011;57434;42.794;23.302;2023-02-10T02:59:50;33.58;;;14.07;;
70071;SDS011;57434;42.794;23.302;2023-02-10T03:01:08;29.30;;;12.65;;
70071;SDS011;57434;42.794;23.302;2023-02-10T03:02:14;27.90;;;10.87;;
70071;SDS011;57434;42.794;23.302;2023-02-10T03:03:18;32.92;;;12.40;;
70071;SDS011;57434;42.794;23.302;2023-02-10T03:04:20;36.13;;;15.35;;
70071;SDS011;57434;42.794;23.302;2023-02-10T03:05:23;33.38;;;12.98;;
70071;SDS011;57434;42.794;23.302;2023-02-10T03:06:30;32.08;;;9.65;;
70071;SDS011;57434;42.794;23.302;2023-02-10T03:07:31;26.20;;;9.90;;
70071;SDS011;57434;42.794;23.302;2023-02-10T03:08:34;26.08;;;10.82;;
70071;SDS011;57434;42.794;23.302;2023-02-10T03:09:39;25.95;;;9.82;;
70071;SDS011;57434;42.794;23.302;2023-02-10T03:10:41;25.92;;;11.30;;
70071;SDS011;57434;42.794;23.302;2023-02-10T03:11:43;31.40;;;11.55;;
70071;SDS011;57434;42.794;23.302;2023-02-10T03:12:45;26.07;;;10.20;;
70071;SDS011;57434;42.794;23.302;2023-02-10T03:13:46;26.80;;;9.82;;
70071;SDS011;57434;42.794;23.302;2023-02-10T03:14:48;27.85;;;10.18;;
70071;SDS011;57434;42.794;23.302;2023-02-10T03:15:50;30.60;;;10.68;;
70071;SDS011;57434;42.794;23.302;2023-02-10T03:16:51;30.70;;;10.73;;
70071;SDS011;57434;42.794;23.302;2023-02-10T03:17:53;25.83;;;9.30;;
70071;SDS011;57434;42.794;23.302;2023-02-10T03:18:55;23.40;;;10.98;;
70071;SDS011;57434;42.794;23.302;2023-02-10T03:19:56;28.15;;;10.18;;
70071;SDS011;57434;42.794;23.302;2023-02-10T03:20:58;27.48;;;10.30;;
70071;SDS011;57434;42.794;23.302;2023-02-10T03:22:00;22.75;;;9.10;;
70071;SDS011;57434;42.794;23.302;2023-02-10T03:23:02;28.70;;;11.17;;
70071;SDS011;57434;42.794;23.302;2023-02-10T03:24:04;25.02;;;11.63;;
70071;SDS011;57434;42.794;23.302;2023-02-10T03:25:06;28.42;;;10.88;;
70071;SDS011;57434;42.794;23.302;2023-02-10T03:26:07;26.70;;;11.95;;
70071;SDS011;57434;42.794;23.302;2023-02-10T03:27:09;19.85;;;8.07;;
70071;SDS011;57434;42.794;23.302;2023-02-10T03:28:11;24.23;;;8.75;;
70071;SDS011;57434;42.794;23.302;2023-02-10T03:29:14;28.75;;;10.57;;
70071;SDS011;57434;42.794;23.302;2023-02-10T03:30:17;27.42;;;10.98;;
70071;SDS011;57434;42.794;23.302;2023-02-10T03:31:19;24.33;;;11.02;;
70071;SDS011;57434;42.794;23.302;2023-02-10T03:32:21;24.45;;;8.43;;
70071;SDS011;57434;42.794;23.302;2023-02-10T03:33:23;24.10;;;9.63;;
70071;SDS011;57434;42.794;23.302;2023-02-10T03:34:25;35.33;;;10.45;;
70071;SDS011;57434;42.794;23.302;2023-02-10T03:35:27;22.65;;;9.90;;
70071;SDS011;57434;42.794;23.302;2023-02-10T03:36:29;28.52;;;12.23;;
70071;SDS011;57434;42.794;23.302;2023-02-10T03:37:31;22.65;;;10.60;;
70071;SDS011;57434;42.794;23.302;2023-02-10T03:38:32;31.75;;;11.55;;
70071;SDS011;57434;42.794;23.302;2023-02-10T03:39:34;28.13;;;11.20;;
70071;SDS011;57434;42.794;23.302;2023-02-10T03:40:36;24.48;;;9.23;;
70071;SDS011;57434;42.794;23.302;2023-02-10T03:41:38;21.75;;;10.40;;
70071;SDS011;57434;42.794;23.302;2023-02-10T03:42:39;22.95;;;9.68;;
70071;SDS011;57434;42.794;23.302;2023-02-10T03:43:41;28.47;;;11.27;;
70071;SDS011;57434;42.794;23.302;2023-02-10T03:44:43;24.55;;;10.93;;
70071;SDS011;57434;42.794;23.302;2023-02-10T03:45:45;26.25;;;10.75;;
70071;SDS011;57434;42.794;23.302;2023-02-10T03:46:47;24.42;;;11.93;;
70071;SDS011;57434;42.794;23.302;2023-02-10T03:47:49;24.00;;;9.38;;
70071;SDS011;57434;42.794;23.302;2023-02-10T03:48:51;22.02;;;10.70;;
70071;SDS011;57434;42.794;23.302;2023-02-10T03:49:52;28.08;;;11.95;;
70071;SDS011;57434;42.794;23.302;2023-02-10T03:50:54;24.98;;;11.15;;
70071;SDS011;57434;42.794;23.302;2023-02-10T03:51:56;36.28;;;10.75;;
70071;SDS011;57434;42.794;23.302;2023-02-10T03:52:57;25.13;;;9.68;;
70071;SDS011;57434;42.794;23.302;2023-02-10T03:53:59;24.27;;;10.77;;
70071;SDS011;57434;42.794;23.302;2023-02-10T03:55:01;29.80;;;11.35;;
70071;SDS011;57434;42.794;23.302;2023-02-10T03:56:03;23.95;;;10.13;;
70071;SDS011;57434;42.794;23.302;2023-02-10T03:57:05;25.17;;;9.88;;
70071;SDS011;57434;42.794;23.302;2023-02-10T03:58:07;28.17;;;11.32;;
70071;SDS011;57434;42.794;23.302;2023-02-10T03:59:08;25.35;;;10.73;;
70071;SDS011;57434;42.794;23.302;2023-02-10T04:00:11;27.02;;;10.30;;
70071;SDS011;57434;42.794;23.302;2023-02-10T04:01:15;29.77;;;10.85;;
70071;SDS011;57434;42.794;23.302;2023-02-10T04:02:18;28.70;;;10.65;;
70071;SDS011;57434;42.794;23.302;2023-02-10T04:03:20;38.10;;;11.73;;
70071;SDS011;57434;42.794;23.302;2023-02-10T04:04:22;31.90;;;12.00;;
70071;SDS011;57434;42.794;23.302;2023-02-10T04:05:23;29.77;;;10.50;;
70071;SDS011;57434;42.794;23.302;2023-02-10T04:06:25;27.42;;;11.63;;
70071;SDS011;57434;42.794;23.302;2023-02-10T04:07:27;26.88;;;12.15;;
70071;SDS011;57434;42.794;23.302;2023-02-10T04:08:29;28.30;;;12.13;;
70071;SDS011;57434;42.794;23.302;2023-02-10T04:09:31;29.95;;;11.65;;
70071;SDS011;57434;42.794;23.302;2023-02-10T04:10:32;26.77;;;10.50;;
70071;SDS011;57434;42.794;23.302;2023-02-10T04:11:34;25.70;;;9.98;;
70071;SDS011;57434;42.794;23.302;2023-02-10T04:12:36;29.25;;;11.77;;
70071;SDS011;57434;42.794;23.302;2023-02-10T04:13:38;34.10;;;12.05;;
70071;SDS011;57434;42.794;23.302;2023-02-10T04:14:40;25.93;;;10.43;;
70071;SDS011;57434;42.794;23.302;2023-02-10T04:15:42;28.58;;;11.45;;
70071;SDS011;57434;42.794;23.302;2023-02-10T04:16:43;28.48;;;11.02;;
70071;SDS011;57434;42.794;23.302;2023-02-10T04:17:45;29.73;;;11.23;;
70071;SDS011;57434;42.794;23.302;2023-02-10T04:18:47;25.75;;;10.25;;
70071;SDS011;57434;42.794;23.302;2023-02-10T04:19:49;29.40;;;9.93;;
70071;SDS011;57434;42.794;23.302;2023-02-10T04:20:50;32.65;;;10.93;;
70071;SDS011;57434;42.794;23.302;2023-02-10T04:21:52;25.58;;;10.93;;
70071;SDS011;57434;42.794;23.302;2023-02-10T04:22:54;26.80;;;10.50;;
70071;SDS011;57434;42.794;23.302;2023-02-10T04:23:55;29.15;;;10.63;;
70071;SDS011;57434;42.794;23.302;2023-02-10T04:24:57;25.80;;;10.70;;
70071;SDS011;57434;42.794;23.302;2023-02-10T04:25:59;26.52;;;10.20;;
70071;SDS011;57434;42.794;23.302;2023-02-10T04:27:01;32.00;;;10.65;;
70071;SDS011;57434;42.794;23.302;2023-02-10T04:28:03;23.13;;;10.38;;
70071;SDS011;57434;42.794;23.302;2023-02-10T04:29:05;27.10;;;10.95;;
70071;SDS011;57434;42.794;23.302;2023-02-10T04:30:07;28.15;;;10.48;;
70071;SDS011;57434;42.794;23.302;2023-02-10T04:31:10;29.70;;;12.27;;
70071;SDS011;57434;42.794;23.302;2023-02-10T04:32:12;27.58;;;10.93;;
70071;SDS011;57434;42.794;23.302;2023-02-10T04:33:13;24.75;;;10.00;;
70071;SDS011;57434;42.794;23.302;2023-02-10T04:34:15;23.80;;;9.32;;
70071;SDS011;57434;42.794;23.302;2023-02-10T04:35:17;27.10;;;9.27;;
70071;SDS011;57434;42.794;23.302;2023-02-10T04:36:19;22.92;;;8.73;;
70071;SDS011;57434;42.794;23.302;2023-02-10T04:37:20;21.27;;;8.88;;
70071;SDS011;57434;42.794;23.302;2023-02-10T04:38:22;26.95;;;9.20;;
70071;SDS011;57434;42.794;23.302;2023-02-10T04:39:24;18.27;;;8.13;;
70071;SDS011;57434;42.794;23.302;2023-02-10T04:40:26;27.55;;;10.18;;
70071;SDS011;57434;42.794;23.302;2023-02-10T04:41:28;17.40;;;8.18;;
70071;SDS011;57434;42.794;23.302;2023-02-10T04:42:29;23.92;;;9.25;;
70071;SDS011;57434;42.794;23.302;2023-02-10T04:43:32;26.13;;;9.60;;
70071;SDS011;57434;42.794;23.302;2023-02-10T04:44:34;28.08;;;9.82;;
70071;SDS011;57434;42.794;23.302;2023-02-10T04:45:36;27.80;;;9.43;;
70071;SDS011;57434;42.794;23.302;2023-02-10T04:46:38;19.17;;;8.20;;
70071;SDS011;57434;42.794;23.302;2023-02-10T04:47:40;28.67;;;8.77;;
70071;SDS011;57434;42.794;23.302;2023-02-10T04:48:41;23.60;;;8.55;;
70071;SDS011;57434;42.794;23.302;2023-02-10T04:49:43;28.27;;;7.97;;
70071;SDS011;57434;42.794;23.302;2023-02-10T04:50:45;19.70;;;8.20;;
70071;SDS011;57434;42.794;23.302;2023-02-10T04:51:47;18.67;;;8.93;;
70071;SDS011;57434;42.794;23.302;2023-02-10T04:52:48;20.67;;;8.57;;
70071;SDS011;57434;42.794;23.302;2023-02-10T04:53:50;17.83;;;9.02;;
70071;SDS011;57434;42.794;23.302;2023-02-10T04:54:52;25.48;;;10.50;;
70071;SDS011;57434;42.794;23.302;2023-02-10T04:55:54;23.97;;;9.97;;
70071;SDS011;57434;42.794;23.302;2023-02-10T04:56:55;25.08;;;11.18;;
70071;SDS011;57434;42.794;23.302;2023-02-10T04:57:57;24.25;;;10.30;;
70071;SDS011;57434;42.794;23.302;2023-02-10T04:58:59;27.30;;;11.68;;
70071;SDS011;57434;42.794;23.302;2023-02-10T05:00:02;24.10;;;10.27;;
70071;SDS011;57434;42.794;23.302;2023-02-10T05:01:04;22.83;;;8.60;;
70071;SDS011;57434;42.794;23.302;2023-02-10T05:02:06;28.15;;;9.93;;
70071;SDS011;57434;42.794;23.302;2023-02-10T05:03:08;24.55;;;9.50;;
70071;SDS011;57434;42.794;23.302;2023-02-10T05:04:10;20.23;;;9.75;;
70071;SDS011;57434;42.794;23.302;2023-02-10T05:05:12;28.63;;;9.98;;
70071;SDS011;57434;42.794;23.302;2023-02-10T05:06:15;24.67;;;9.97;;
70071;SDS011;57434;42.794;23.302;2023-02-10T05:07:17;24.15;;;8.73;;
70071;SDS011;57434;42.794;23.302;2023-02-10T05:08:19;22.13;;;9.27;;
70071;SDS011;57434;42.794;23.302;2023-02-10T05:09:21;22.15;;;9.68;;
70071;SDS011;57434;42.794;23.302;2023-02-10T05:10:23;20.33;;;8.73;;
70071;SDS011;57434;42.794;23.302;2023-02-10T05:11:24;25.67;;;10.30;;
70071;SDS011;57434;42.794;23.302;2023-02-10T05:12:26;19.85;;;8.80;;
70071;SDS011;57434;42.794;23.302;2023-02-10T05:13:28;25.17;;;10.73;;
70071;SDS011;57434;42.794;23.302;2023-02-10T05:14:30;24.63;;;10.50;;
70071;SDS011;57434;42.794;23.302;2023-02-10T05:15:31;21.00;;;9.48;;
70071;SDS011;57434;42.794;23.302;2023-02-10T05:16:33;22.97;;;9.50;;
70071;SDS011;57434;42.794;23.302;2023-02-10T05:17:35;24.35;;;9.27;;
70071;SDS011;57434;42.794;23.302;2023-02-10T05:18:37;17.65;;;7.07;;
70071;SDS011;57434;42.794;23.302;2023-02-10T05:19:39;21.23;;;9.10;;
70071;SDS011;57434;42.794;23.302;2023-02-10T05:20:41;19.48;;;7.45;;
70071;SDS011;57434;42.794;23.302;2023-02-10T05:21:43;28.45;;;9.32;;
70071;SDS011;57434;42.794;23.302;2023-02-10T05:22:44;21.35;;;9.43;;
70071;SDS011;57434;42.794;23.302;2023-02-10T05:23:46;24.52;;;8.00;;
70071;SDS011;57434;42.794;23.302;2023-02-10T05:24:48;19.38;;;9.23;;
70071;SDS011;57434;42.794;23.302;2023-02-10T05:25:50;24.67;;;10.05;;
70071;SDS011;57434;42.794;23.302;2023-02-10T05:26:51;20.40;;;8.43;;
70071;SDS011;57434;42.794;23.302;2023-02-10T05:27:53;25.83;;;9.88;;
70071;SDS011;57434;42.794;23.302;2023-02-10T05:28:55;27.35;;;10.60;;
70071;SDS011;57434;42.794;23.302;2023-02-10T05:29:56;20.55;;;8.15;;
70071;SDS011;57434;42.794;23.302;2023-02-10T05:30:58;23.45;;;8.70;;
70071;SDS011;57434;42.794;23.302;2023-02-10T05:32:00;24.02;;;10.52;;
70071;SDS011;57434;42.794;23.302;2023-02-10T05:33:03;16.83;;;8.43;;
70071;SDS011;57434;42.794;23.302;2023-02-10T05:34:04;18.52;;;8.05;;
70071;SDS011;57434;42.794;23.302;2023-02-10T05:35:06;24.67;;;8.98;;
70071;SDS011;57434;42.794;23.302;2023-02-10T05:36:09;21.05;;;9.82;;
70071;SDS011;57434;42.794;23.302;2023-02-10T05:37:10;27.10;;;11.03;;
70071;SDS011;57434;42.794;23.302;2023-02-10T05:38:12;36.58;;;12.55;;
70071;SDS011;57434;42.794;23.302;2023-02-10T05:39:14;31.10;;;12.45;;
70071;SDS011;57434;42.794;23.302;2023-02-10T05:40:16;29.58;;;13.32;;
70071;SDS011;57434;42.794;23.302;2023-02-10T05:41:17;37.80;;;15.90;;
70071;SDS011;57434;42.794;23.302;2023-02-10T05:42:19;41.72;;;15.73;;
70071;SDS011;57434;42.794;23.302;2023-02-10T05:43:21;42.47;;;16.67;;
70071;SDS011;57434;42.794;23.302;2023-02-10T05:44:23;51.08;;;17.40;;
70071;SDS011;57434;42.794;23.302;2023-02-10T05:45:26;40.03;;;15.20;;
70071;SDS011;57434;42.794;23.302;2023-02-10T05:46:28;36.95;;;14.88;;
70071;SDS011;57434;42.794;23.302;2023-02-10T05:47:30;31.27;;;13.13;;
70071;SDS011;57434;42.794;23.302;2023-02-10T05:48:31;40.10;;;15.60;;
70071;SDS011;57434;42.794;23.302;2023-02-10T05:49:33;31.23;;;12.43;;
70071;SDS011;57434;42.794;23.302;2023-02-10T05:50:35;30.48;;;12.55;;
70071;SDS011;57434;42.794;23.302;2023-02-10T05:51:37;30.58;;;11.27;;
70071;SDS011;57434;42.794;23.302;2023-02-10T05:52:38;27.63;;;9.65;;
70071;SDS011;57434;42.794;23.302;2023-02-10T05:53:40;36.83;;;11.60;;
70071;SDS011;57434;42.794;23.302;2023-02-10T05:54:42;30.95;;;9.77;;
70071;SDS011;57434;42.794;23.302;2023-02-10T05:55:45;35.50;;;13.98;;
70071;SDS011;57434;42.794;23.302;2023-02-10T05:56:48;28.10;;;11.85;;
70071;SDS011;57434;42.794;23.302;2023-02-10T05:57:51;29.70;;;11.20;;
70071;SDS011;57434;42.794;23.302;2023-02-10T05:58:53;34.25;;;10.90;;
70071;SDS011;57434;42.794;23.302;2023-02-10T05:59:55;29.33;;;10.95;;
70071;SDS011;57434;42.794;23.302;2023-02-10T06:00:57;29.50;;;11.88;;
70071;SDS011;57434;42.794;23.302;2023-02-10T06:02:06;32.45;;;11.32;;
70071;SDS011;57434;42.794;23.302;2023-02-10T06:03:08;32.92;;;12.65;;
70071;SDS011;57434;42.794;23.302;2023-02-10T06:04:10;34.63;;;13.55;;
70071;SDS011;57434;42.794;23.302;2023-02-10T06:05:11;43.72;;;13.00;;
70071;SDS011;57434;42.794;23.302;2023-02-10T06:06:13;25.98;;;11.50;;
70071;SDS011;57434;42.794;23.302;2023-02-10T06:07:15;27.75;;;12.38;;
70071;SDS011;57434;42.794;23.302;2023-02-10T06:08:17;36.27;;;14.83;;
70071;SDS011;57434;42.794;23.302;2023-02-10T06:09:20;48.90;;;17.17;;
70071;SDS011;57434;42.794;23.302;2023-02-10T06:10:21;48.20;;;18.17;;
70071;SDS011;57434;42.794;23.302;2023-02-10T06:11:23;43.78;;;16.10;;
70071;SDS011;57434;42.794;23.302;2023-02-10T06:12:25;32.92;;;11.65;;
70071;SDS011;57434;42.794;23.302;2023-02-10T06:13:27;39.58;;;11.95;;
70071;SDS011;57434;42.794;23.302;2023-02-10T06:14:28;25.15;;;10.88;;
70071;SDS011;57434;42.794;23.302;2023-02-10T06:15:30;25.90;;;9.75;;
70071;SDS011;57434;42.794;23.302;2023-02-10T06:16:32;27.20;;;10.13;;
70071;SDS011;57434;42.794;23.302;2023-02-10T06:17:33;21.88;;;8.48;;
70071;SDS011;57434;42.794;23.302;2023-02-10T06:18:35;20.00;;;8.63;;
70071;SDS011;57434;42.794;23.302;2023-02-10T06:19:37;16.95;;;7.45;;
70071;SDS011;57434;42.794;23.302;2023-02-10T06:20:40;19.25;;;8.48;;
70071;SDS011;57434;42.794;23.302;2023-02-10T06:21:42;29.85;;;11.13;;
70071;SDS011;57434;42.794;23.302;2023-02-10T06:22:43;24.73;;;9.77;;
70071;SDS011;57434;42.794;23.302;2023-02-10T06:23:45;25.80;;;11.35;;
70071;SDS011;57434;42.794;23.302;2023-02-10T06:24:47;31.98;;;13.70;;
70071;SDS011;57434;42.794;23.302;2023-02-10T06:25:49;28.10;;;12.35;;
70071;SDS011;57434;42.794;23.302;2023-02-10T06:26:51;42.80;;;13.98;;